sensor_id;sensor_type;location;lat;lon;timestamp;pressure;altitude;pressure_sealevel;temperature;humidity
51526;BME280;37611;51.794;21.590;2023-12-07T00:03:57;100260.61;;;-1.46;100.00
51526;BME280;37611;51.794;21.590;2023-12-07T00:07:59;100262.42;;;-1.44;100.00
51526;BME280;37611;51.794;21.590;2023-12-07T00:12:01;100261.55;;;-1.43;100.00
51526;BME280;37611;51.794;21.590;2023-12-07T00:16:04;100260.73;;;-1.41;100.00
51526;BME280;37611;51.794;21.590;2023-12-07T00:20:06;100260.69;;;-1.39;100.00
51526;BME280;37611;51.794;21.590;2023-12-07T00:24:08;100259.54;;;-1.37;100.00
51526;BME280;37611;51.794;21.590;2023-12-07T00:28:10;100256.14;;;-1.34;100.00
51526;BME280;37611;51.794;21.590;2023-12-07T00:32:12;100262.32;;;-1.30;100.00
51526;BME280;37611;51.794;21.590;2023-12-07T00:36:14;100264.98;;;-1.29;100.00
51526;BME280;37611;51.794;21.590;2023-12-07T00:40:16;100260.17;;;-1.29;100.00
51526;BME280;37611;51.794;21.590;2023-12-07T00:44:18;100256.88;;;-1.28;100.00
51526;BME280;37611;51.794;21.590;2023-12-07T00:48:20;100254.75;;;-1.27;100.00
51526;BME280;37611;51.794;21.590;2023-12-07T00:52:22;100262.34;;;-1.24;100.00
51526;BME280;37611;51.794;21.590;2023-12-07T00:56:24;100263.50;;;-1.22;100.00
51526;BME280;37611;51.794;21.590;2023-12-07T01:00:26;100264.45;;;-1.20;100.00
51526;BME280;37611;51.794;21.590;2023-12-07T01:04:28;100265.45;;;-1.20;100.00
51526;BME280;37611;51.794;21.590;2023-12-07T01:08:30;100269.92;;;-1.20;100.00
51526;BME280;37611;51.794;21.590;2023-12-07T01:12:32;100269.45;;;-1.17;100.00
51526;BME280;37611;51.794;21.590;2023-12-07T01:16:34;100273.64;;;-1.15;100.00
51526;BME280;37611;51.794;21.590;2023-12-07T01:20:36;100263.48;;;-1.15;100.00
51526;BME280;37611;51.794;21.590;2023-12-07T01:24:38;100263.45;;;-1.14;100.00
51526;BME280;37611;51.794;21.590;2023-12-07T01:28:39;100260.08;;;-1.12;100.00
51526;BME280;37611;51.794;21.590;2023-12-07T01:32:41;100260.83;;;-1.09;100.00
51526;BME280;37611;51.794;21.590;2023-12-07T01:36:43;100263.16;;;-1.08;100.00
51526;BME280;37611;51.794;21.590;2023-12-07T01:40:45;100261.59;;;-1.07;100.00
51526;BME280;37611;51.794;21.590;2023-12-07T01:44:47;100260.35;;;-1.06;100.00
51526;BME280;37611;51.794;21.590;2023-12-07T01:48:49;100256.58;;;-1.07;100.00
51526;BME280;37611;51.794;21.590;2023-12-07T01:52:58;100258.30;;;-1.07;100.00
51526;BME280;37611;51.794;21.590;2023-12-07T01:57:01;100253.98;;;-1.07;100.00
51526;BME280;37611;51.794;21.590;2023-12-07T02:01:04;100250.66;;;-1.05;100.00
51526;BME280;37611;51.794;21.590;2023-12-07T02:05:07;100246.60;;;-1.03;100.00
51526;BME280;37611;51.794;21.590;2023-12-07T02:09:09;100252.28;;;-1.03;100.00
51526;BME280;37611;51.794;21.590;2023-12-07T02:13:11;100250.45;;;-1.01;100.00
51526;BME280;37611;51.794;21.590;2023-12-07T02:17:38;100253.23;;;-0.98;100.00
51526;BME280;37611;51.794;21.590;2023-12-07T02:21:52;100257.99;;;-0.96;100.00
51526;BME280;37611;51.794;21.590;2023-12-07T02:26:02;100257.60;;;-0.95;100.00
51526;BME280;37611;51.794;21.590;2023-12-07T02:30:10;100256.63;;;-0.93;100.00
51526;BME280;37611;51.794;21.590;2023-12-07T02:34:12;100261.44;;;-0.93;100.00
51526;BME280;37611;51.794;21.590;2023-12-07T02:38:16;100262.68;;;-0.94;100.00
51526;BME280;37611;51.794;21.590;2023-12-07T02:42:20;100264.95;;;-0.95;100.00
51526;BME280;37611;51.794;21.590;2023-12-07T02:46:25;100265.30;;;-0.95;100.00
51526;BME280;37611;51.794;21.590;2023-12-07T02:50:27;100268.52;;;-0.98;100.00
51526;BME280;37611;51.794;21.590;2023-12-07T02:54:29;100261.98;;;-0.97;100.00
51526;BME280;37611;51.794;21.590;2023-12-07T02:58:31;100269.20;;;-0.97;100.00
51526;BME280;37611;51.794;21.590;2023-12-07T03:02:40;100277.45;;;-0.97;100.00
51526;BME280;37611;51.794;21.590;2023-12-07T03:06:42;100278.81;;;-0.96;100.00
51526;BME280;37611;51.794;21.590;2023-12-07T03:10:44;100277.52;;;-0.95;100.00
51526;BME280;37611;51.794;21.590;2023-12-07T03:14:46;100276.63;;;-0.94;100.00
51526;BME280;37611;51.794;21.590;2023-12-07T03:18:47;100277.09;;;-0.93;100.00
51526;BME280;37611;51.794;21.590;2023-12-07T03:22:49;100282.18;;;-0.92;100.00
51526;BME280;37611;51.794;21.590;2023-12-07T03:26:51;100281.27;;;-0.91;100.00
51526;BME280;37611;51.794;21.590;2023-12-07T03:30:53;100285.95;;;-0.91;100.00
51526;BME280;37611;51.794;21.590;2023-12-07T03:34:55;100286.52;;;-0.93;100.00
51526;BME280;37611;51.794;21.590;2023-12-07T03:38:57;100283.46;;;-0.93;100.00
51526;BME280;37611;51.794;21.590;2023-12-07T03:42:59;100280.20;;;-0.93;100.00
51526;BME280;37611;51.794;21.590;2023-12-07T03:47:01;100285.38;;;-0.94;100.00
51526;BME280;37611;51.794;21.590;2023-12-07T03:51:04;100282.94;;;-0.97;100.00
51526;BME280;37611;51.794;21.590;2023-12-07T03:55:07;100278.84;;;-0.97;100.00
51526;BME280;37611;51.794;21.590;2023-12-07T03:59:09;100278.14;;;-0.97;100.00
51526;BME280;37611;51.794;21.590;2023-12-07T04:03:11;100277.16;;;-0.98;100.00
51526;BME280;37611;51.794;21.590;2023-12-07T04:07:13;100276.50;;;-0.99;100.00
51526;BME280;37611;51.794;21.590;2023-12-07T04:11:16;100274.86;;;-1.01;100.00
51526;BME280;37611;51.794;21.590;2023-12-07T04:15:18;100278.64;;;-1.01;100.00
51526;BME280;37611;51.794;21.590;2023-12-07T04:19:21;100283.73;;;-0.99;100.00
51526;BME280;37611;51.794;21.590;2023-12-07T04:23:23;100284.52;;;-0.98;100.00
51526;BME280;37611;51.794;21.590;2023-12-07T04:27:25;100283.14;;;-0.97;100.00
51526;BME280;37611;51.794;21.590;2023-12-07T04:31:27;100286.05;;;-0.97;100.00
51526;BME280;37611;51.794;21.590;2023-12-07T04:35:30;100287.02;;;-0.96;100.00
51526;BME280;37611;51.794;21.590;2023-12-07T04:39:31;100287.40;;;-0.97;100.00
51526;BME280;37611;51.794;21.590;2023-12-07T04:43:33;100291.11;;;-0.95;100.00
51526;BME280;37611;51.794;21.590;2023-12-07T04:47:35;100290.95;;;-0.95;100.00
51526;BME280;37611;51.794;21.590;2023-12-07T04:51:37;100285.17;;;-0.97;100.00
51526;BME280;37611;51.794;21.590;2023-12-07T04:55:39;100285.66;;;-0.96;100.00
51526;BME280;37611;51.794;21.590;2023-12-07T04:59:41;100284.66;;;-0.97;100.00
51526;BME280;37611;51.794;21.590;2023-12-07T05:03:43;100288.73;;;-0.95;100.00
51526;BME280;37611;51.794;21.590;2023-12-07T05:07:45;100289.14;;;-0.94;100.00
51526;BME280;37611;51.794;21.590;2023-12-07T05:11:47;100292.25;;;-0.93;100.00
51526;BME280;37611;51.794;21.590;2023-12-07T05:15:49;100295.23;;;-0.95;100.00
51526;BME280;37611;51.794;21.590;2023-12-07T05:19:50;100296.30;;;-0.96;100.00
51526;BME280;37611;51.794;21.590;2023-12-07T05:23:52;100298.09;;;-0.97;100.00
51526;BME280;37611;51.794;21.590;2023-12-07T05:27:55;100305.73;;;-0.96;100.00
51526;BME280;37611;51.794;21.590;2023-12-07T05:31:59;100303.42;;;-0.98;100.00
51526;BME280;37611;51.794;21.590;2023-12-07T05:36:04;100303.20;;;-1.01;100.00
51526;BME280;37611;51.794;21.590;2023-12-07T05:40:09;100303.64;;;-1.03;100.00
51526;BME280;37611;51.794;21.590;2023-12-07T05:44:13;100306.98;;;-1.04;100.00
51526;BME280;37611;51.794;21.590;2023-12-07T05:48:15;100310.33;;;-1.02;100.00
51526;BME280;37611;51.794;21.590;2023-12-07T05:52:17;100315.29;;;-1.02;100.00
51526;BME280;37611;51.794;21.590;2023-12-07T05:56:19;100316.63;;;-1.01;100.00
51526;BME280;37611;51.794;21.590;2023-12-07T06:00:24;100322.16;;;-1.02;100.00
51526;BME280;37611;51.794;21.590;2023-12-07T06:04:27;100326.58;;;-1.04;100.00
51526;BME280;37611;51.794;21.590;2023-12-07T06:08:28;100329.27;;;-1.03;100.00
51526;BME280;37611;51.794;21.590;2023-12-07T06:12:30;100337.45;;;-1.02;100.00
51526;BME280;37611;51.794;21.590;2023-12-07T06:16:32;100341.56;;;-1.02;100.00
51526;BME280;37611;51.794;21.590;2023-12-07T06:20:34;100343.85;;;-0.99;100.00
51526;BME280;37611;51.794;21.590;2023-12-07T06:24:37;100340.95;;;-0.95;100.00
51526;BME280;37611;51.794;21.590;2023-12-07T06:28:39;100342.95;;;-0.94;100.00
51526;BME280;37611;51.794;21.590;2023-12-07T06:32:41;100346.74;;;-0.94;100.00
51526;BME280;37611;51.794;21.590;2023-12-07T06:36:43;100351.55;;;-0.94;100.00
51526;BME280;37611;51.794;21.590;2023-12-07T06:40:45;100355.46;;;-0.92;100.00
51526;BME280;37611;51.794;21.590;2023-12-07T06:44:48;100352.99;;;-0.92;100.00
51526;BME280;37611;51.794;21.590;2023-12-07T06:48:52;100357.41;;;-0.91;100.00
51526;BME280;37611;51.794;21.590;2023-12-07T06:52:54;100361.75;;;-0.91;100.00
51526;BME280;37611;51.794;21.590;2023-12-07T06:56:57;100370.57;;;-0.93;100.00
51526;BME280;37611;51.794;21.590;2023-12-07T07:00:58;100370.44;;;-0.94;100.00
51526;BME280;37611;51.794;21.590;2023-12-07T07:05:00;100366.23;;;-0.92;100.00
51526;BME280;37611;51.794;21.590;2023-12-07T07:09:02;100367.29;;;-0.92;100.00
51526;BME280;37611;51.794;21.590;2023-12-07T07:13:06;100370.40;;;-0.92;100.00
51526;BME280;37611;51.794;21.590;2023-12-07T07:17:08;100374.36;;;-0.89;100.00
51526;BME280;37611;51.794;21.590;2023-12-07T07:21:10;100374.11;;;-0.88;100.00
51526;BME280;37611;51.794;21.590;2023-12-07T07:25:11;100376.72;;;-0.84;100.00
51526;BME280;37611;51.794;21.590;2023-12-07T07:29:13;100377.89;;;-0.83;100.00
51526;BME280;37611;51.794;21.590;2023-12-07T07:33:15;100378.16;;;-0.82;100.00
51526;BME280;37611;51.794;21.590;2023-12-07T07:37:16;100379.21;;;-0.79;100.00
51526;BME280;37611;51.794;21.590;2023-12-07T07:41:18;100385.73;;;-0.79;100.00
51526;BME280;37611;51.794;21.590;2023-12-07T07:45:20;100387.68;;;-0.80;100.00
51526;BME280;37611;51.794;21.590;2023-12-07T07:49:21;100387.17;;;-0.76;100.00
51526;BME280;37611;51.794;21.590;2023-12-07T07:53:23;100382.71;;;-0.77;100.00
51526;BME280;37611;51.794;21.590;2023-12-07T07:57:25;100381.48;;;-0.76;100.00
51526;BME280;37611;51.794;21.590;2023-12-07T08:01:27;100385.80;;;-0.76;100.00
51526;BME280;37611;51.794;21.590;2023-12-07T08:05:29;100391.86;;;-0.69;100.00
51526;BME280;37611;51.794;21.590;2023-12-07T08:09:31;100390.25;;;-0.68;100.00
51526;BME280;37611;51.794;21.590;2023-12-07T08:13:33;100391.66;;;-0.68;100.00
51526;BME280;37611;51.794;21.590;2023-12-07T08:17:34;100396.20;;;-0.67;100.00
51526;BME280;37611;51.794;21.590;2023-12-07T08:21:36;100404.55;;;-0.65;100.00
51526;BME280;37611;51.794;21.590;2023-12-07T08:25:38;100403.31;;;-0.64;100.00
51526;BME280;37611;51.794;21.590;2023-12-07T08:29:41;100404.22;;;-0.58;100.00
51526;BME280;37611;51.794;21.590;2023-12-07T08:33:43;100407.91;;;-0.56;100.00
51526;BME280;37611;51.794;21.590;2023-12-07T08:37:45;100415.88;;;-0.61;100.00
51526;BME280;37611;51.794;21.590;2023-12-07T08:41:47;100420.98;;;-0.60;100.00
51526;BME280;37611;51.794;21.590;2023-12-07T08:45:50;100426.25;;;-0.62;100.00
51526;BME280;37611;51.794;21.590;2023-12-07T08:49:52;100429.58;;;-0.67;100.00
51526;BME280;37611;51.794;21.590;2023-12-07T08:53:53;100431.61;;;-0.66;100.00
51526;BME280;37611;51.794;21.590;2023-12-07T08:57:56;100434.21;;;-0.67;100.00
51526;BME280;37611;51.794;21.590;2023-12-07T09:01:58;100433.30;;;-0.62;100.00
51526;BME280;37611;51.794;21.590;2023-12-07T09:06:00;100433.65;;;-0.58;100.00
51526;BME280;37611;51.794;21.590;2023-12-07T09:10:03;100432.98;;;-0.59;100.00
51526;BME280;37611;51.794;21.590;2023-12-07T09:14:05;100432.75;;;-0.61;100.00
51526;BME280;37611;51.794;21.590;2023-12-07T09:18:07;100436.48;;;-0.60;100.00
51526;BME280;37611;51.794;21.590;2023-12-07T09:22:08;100431.85;;;-0.64;100.00
51526;BME280;37611;51.794;21.590;2023-12-07T09:26:11;100431.71;;;-0.69;100.00
51526;BME280;37611;51.794;21.590;2023-12-07T09:30:13;100428.95;;;-0.68;100.00
51526;BME280;37611;51.794;21.590;2023-12-07T09:34:15;100429.27;;;-0.68;100.00
51526;BME280;37611;51.794;21.590;2023-12-07T09:38:19;100431.62;;;-0.67;100.00
51526;BME280;37611;51.794;21.590;2023-12-07T09:42:21;100431.17;;;-0.71;100.00
51526;BME280;37611;51.794;21.590;2023-12-07T09:46:22;100428.15;;;-0.73;100.00
51526;BME280;37611;51.794;21.590;2023-12-07T09:50:26;100425.70;;;-0.72;100.00
51526;BME280;37611;51.794;21.590;2023-12-07T09:54:29;100426.05;;;-0.69;100.00
51526;BME280;37611;51.794;21.590;2023-12-07T09:58:31;100424.49;;;-0.69;100.00
51526;BME280;37611;51.794;21.590;2023-12-07T10:02:36;100427.66;;;-0.66;100.00
51526;BME280;37611;51.794;21.590;2023-12-07T10:06:43;100428.15;;;-0.70;100.00
51526;BME280;37611;51.794;21.590;2023-12-07T10:11:10;100427.94;;;-0.65;100.00
51526;BME280;37611;51.794;21.590;2023-12-07T10:15:16;100431.41;;;-0.62;100.00
51526;BME280;37611;51.794;21.590;2023-12-07T10:19:18;100432.31;;;-0.59;100.00
51526;BME280;37611;51.794;21.590;2023-12-07T10:23:23;100430.19;;;-0.58;100.00
51526;BME280;37611;51.794;21.590;2023-12-07T10:27:26;100426.42;;;-0.55;100.00
51526;BME280;37611;51.794;21.590;2023-12-07T10:31:29;100422.94;;;-0.39;100.00
51526;BME280;37611;51.794;21.590;2023-12-07T10:35:32;100425.56;;;-0.36;100.00
51526;BME280;37611;51.794;21.590;2023-12-07T10:39:34;100423.25;;;-0.34;100.00
51526;BME280;37611;51.794;21.590;2023-12-07T10:43:37;100420.69;;;-0.39;100.00
51526;BME280;37611;51.794;21.590;2023-12-07T10:47:39;100426.50;;;-0.45;100.00
51526;BME280;37611;51.794;21.590;2023-12-07T10:51:45;100427.13;;;-0.44;100.00
51526;BME280;37611;51.794;21.590;2023-12-07T10:55:56;100424.31;;;-0.42;100.00
51526;BME280;37611;51.794;21.590;2023-12-07T11:00:01;100422.44;;;-0.42;100.00
51526;BME280;37611;51.794;21.590;2023-12-07T11:04:04;100418.70;;;-0.40;100.00
51526;BME280;37611;51.794;21.590;2023-12-07T11:08:09;100428.42;;;-0.42;100.00
51526;BME280;37611;51.794;21.590;2023-12-07T11:12:29;100431.42;;;-0.51;100.00
51526;BME280;37611;51.794;21.590;2023-12-07T11:16:36;100427.67;;;-0.63;100.00
51526;BME280;37611;51.794;21.590;2023-12-07T11:20:40;100426.59;;;-0.69;100.00
51526;BME280;37611;51.794;21.590;2023-12-07T11:24:57;100422.83;;;-0.69;100.00
51526;BME280;37611;51.794;21.590;2023-12-07T11:28:59;100423.13;;;-0.69;100.00
51526;BME280;37611;51.794;21.590;2023-12-07T11:33:05;100426.39;;;-0.73;100.00
51526;BME280;37611;51.794;21.590;2023-12-07T11:37:15;100424.04;;;-0.74;100.00
51526;BME280;37611;51.794;21.590;2023-12-07T11:41:20;100422.78;;;-0.72;100.00
51526;BME280;37611;51.794;21.590;2023-12-07T11:45:48;100423.23;;;-0.79;100.00
51526;BME280;37611;51.794;21.590;2023-12-07T11:49:50;100424.16;;;-0.77;100.00
51526;BME280;37611;51.794;21.590;2023-12-07T11:53:52;100429.56;;;-0.74;100.00
51526;BME280;37611;51.794;21.590;2023-12-07T11:57:54;100426.99;;;-0.82;100.00
51526;BME280;37611;51.794;21.590;2023-12-07T12:01:59;100427.42;;;-0.84;100.00
51526;BME280;37611;51.794;21.590;2023-12-07T12:06:03;100417.85;;;-0.85;100.00
51526;BME280;37611;51.794;21.590;2023-12-07T12:10:07;100415.48;;;-0.86;100.00
51526;BME280;37611;51.794;21.590;2023-12-07T12:14:09;100414.81;;;-0.82;100.00
51526;BME280;37611;51.794;21.590;2023-12-07T12:18:11;100419.39;;;-0.81;100.00
51526;BME280;37611;51.794;21.590;2023-12-07T12:22:15;100417.50;;;-0.78;100.00
51526;BME280;37611;51.794;21.590;2023-12-07T12:26:17;100419.38;;;-0.78;100.00
51526;BME280;37611;51.794;21.590;2023-12-07T12:30:20;100422.01;;;-0.75;100.00
51526;BME280;37611;51.794;21.590;2023-12-07T12:34:24;100426.10;;;-0.70;100.00
51526;BME280;37611;51.794;21.590;2023-12-07T12:38:26;100425.94;;;-0.70;100.00
51526;BME280;37611;51.794;21.590;2023-12-07T12:42:28;100432.15;;;-0.75;100.00
51526;BME280;37611;51.794;21.590;2023-12-07T12:46:30;100432.27;;;-0.77;100.00
51526;BME280;37611;51.794;21.590;2023-12-07T12:50:44;100432.95;;;-0.81;100.00
51526;BME280;37611;51.794;21.590;2023-12-07T12:54:47;100432.80;;;-0.81;100.00
51526;BME280;37611;51.794;21.590;2023-12-07T12:58:51;100429.91;;;-0.86;100.00
51526;BME280;37611;51.794;21.590;2023-12-07T13:02:53;100431.40;;;-0.92;100.00
51526;BME280;37611;51.794;21.590;2023-12-07T13:06:55;100435.73;;;-0.96;100.00
51526;BME280;37611;51.794;21.590;2023-12-07T13:10:57;100439.99;;;-0.92;100.00
51526;BME280;37611;51.794;21.590;2023-12-07T13:14:59;100439.55;;;-0.90;100.00
51526;BME280;37611;51.794;21.590;2023-12-07T13:19:01;100436.83;;;-0.87;100.00
51526;BME280;37611;51.794;21.590;2023-12-07T13:23:03;100433.23;;;-0.87;100.00
51526;BME280;37611;51.794;21.590;2023-12-07T13:27:05;100433.94;;;-0.91;100.00
51526;BME280;37611;51.794;21.590;2023-12-07T13:31:06;100437.83;;;-0.97;100.00
51526;BME280;37611;51.794;21.590;2023-12-07T13:35:08;100440.67;;;-1.03;100.00
51526;BME280;37611;51.794;21.590;2023-12-07T13:39:10;100444.28;;;-1.08;100.00
51526;BME280;37611;51.794;21.590;2023-12-07T13:43:14;100453.06;;;-1.08;100.00
51526;BME280;37611;51.794;21.590;2023-12-07T13:47:17;100457.23;;;-1.09;100.00
51526;BME280;37611;51.794;21.590;2023-12-07T13:51:19;100461.00;;;-1.09;100.00
51526;BME280;37611;51.794;21.590;2023-12-07T13:55:22;100458.54;;;-1.07;100.00
51526;BME280;37611;51.794;21.590;2023-12-07T13:59:25;100459.73;;;-1.11;100.00
51526;BME280;37611;51.794;21.590;2023-12-07T14:03:27;100460.13;;;-1.16;100.00
51526;BME280;37611;51.794;21.590;2023-12-07T14:07:29;100463.09;;;-1.17;100.00
51526;BME280;37611;51.794;21.590;2023-12-07T14:11:31;100468.77;;;-1.13;100.00
51526;BME280;37611;51.794;21.590;2023-12-07T14:15:33;100472.32;;;-1.16;100.00
51526;BME280;37611;51.794;21.590;2023-12-07T14:19:37;100479.46;;;-1.18;100.00
51526;BME280;37611;51.794;21.590;2023-12-07T14:23:40;100487.02;;;-1.22;100.00
51526;BME280;37611;51.794;21.590;2023-12-07T14:27:42;100487.27;;;-1.24;100.00
51526;BME280;37611;51.794;21.590;2023-12-07T14:31:45;100491.78;;;-1.25;100.00
51526;BME280;37611;51.794;21.590;2023-12-07T14:35:47;100493.11;;;-1.28;100.00
51526;BME280;37611;51.794;21.590;2023-12-07T14:39:50;100493.16;;;-1.29;100.00
51526;BME280;37611;51.794;21.590;2023-12-07T14:43:52;100493.94;;;-1.31;100.00
51526;BME280;37611;51.794;21.590;2023-12-07T14:47:53;100494.25;;;-1.35;100.00
51526;BME280;37611;51.794;21.590;2023-12-07T14:51:56;100496.77;;;-1.37;100.00
51526;BME280;37611;51.794;21.590;2023-12-07T14:56:00;100493.35;;;-1.38;100.00
51526;BME280;37611;51.794;21.590;2023-12-07T15:00:02;100495.75;;;-1.38;100.00
51526;BME280;37611;51.794;21.590;2023-12-07T15:04:05;100500.98;;;-1.39;100.00
51526;BME280;37611;51.794;21.590;2023-12-07T15:08:07;100501.23;;;-1.45;100.00
51526;BME280;37611;51.794;21.590;2023-12-07T15:12:09;100506.59;;;-1.51;100.00
51526;BME280;37611;51.794;21.590;2023-12-07T15:16:11;100509.53;;;-1.51;100.00
51526;BME280;37611;51.794;21.590;2023-12-07T15:20:13;100507.41;;;-1.54;100.00
51526;BME280;37611;51.794;21.590;2023-12-07T15:24:16;100510.96;;;-1.52;100.00
51526;BME280;37611;51.794;21.590;2023-12-07T15:28:18;100509.86;;;-1.51;100.00
51526;BME280;37611;51.794;21.590;2023-12-07T15:32:19;100507.64;;;-1.51;100.00
51526;BME280;37611;51.794;21.590;2023-12-07T15:36:21;100509.73;;;-1.56;100.00
51526;BME280;37611;51.794;21.590;2023-12-07T15:40:23;100512.69;;;-1.57;100.00
51526;BME280;37611;51.794;21.590;2023-12-07T15:44:25;100514.70;;;-1.56;100.00
51526;BME280;37611;51.794;21.590;2023-12-07T15:48:27;100516.12;;;-1.57;100.00
51526;BME280;37611;51.794;21.590;2023-12-07T15:52:29;100517.64;;;-1.56;100.00
51526;BME280;37611;51.794;21.590;2023-12-07T15:56:31;100518.02;;;-1.61;100.00
51526;BME280;37611;51.794;21.590;2023-12-07T16:00:33;100517.06;;;-1.63;100.00
51526;BME280;37611;51.794;21.590;2023-12-07T16:04:35;100517.25;;;-1.68;100.00
51526;BME280;37611;51.794;21.590;2023-12-07T16:08:37;100518.71;;;-1.66;100.00
51526;BME280;37611;51.794;21.590;2023-12-07T16:12:39;100520.92;;;-1.61;100.00
51526;BME280;37611;51.794;21.590;2023-12-07T16:16:41;100521.94;;;-1.60;100.00
51526;BME280;37611;51.794;21.590;2023-12-07T16:20:43;100530.42;;;-1.62;100.00
51526;BME280;37611;51.794;21.590;2023-12-07T16:24:45;100531.61;;;-1.70;100.00
51526;BME280;37611;51.794;21.590;2023-12-07T16:28:47;100532.33;;;-1.71;100.00
51526;BME280;37611;51.794;21.590;2023-12-07T16:32:49;100532.20;;;-1.73;100.00
51526;BME280;37611;51.794;21.590;2023-12-07T16:36:51;100537.81;;;-1.76;100.00
51526;BME280;37611;51.794;21.590;2023-12-07T16:40:53;100544.21;;;-1.77;100.00
51526;BME280;37611;51.794;21.590;2023-12-07T16:44:55;100548.54;;;-1.78;100.00
51526;BME280;37611;51.794;21.590;2023-12-07T16:48:59;100552.14;;;-1.78;100.00
51526;BME280;37611;51.794;21.590;2023-12-07T16:53:01;100550.02;;;-1.80;100.00
51526;BME280;37611;51.794;21.590;2023-12-07T16:57:04;100550.58;;;-1.81;100.00
51526;BME280;37611;51.794;21.590;2023-12-07T17:01:06;100558.07;;;-1.79;100.00
51526;BME280;37611;51.794;21.590;2023-12-07T17:05:08;100557.22;;;-1.80;100.00
51526;BME280;37611;51.794;21.590;2023-12-07T17:09:10;100557.28;;;-1.81;100.00
51526;BME280;37611;51.794;21.590;2023-12-07T17:13:12;100555.29;;;-1.83;100.00
51526;BME280;37611;51.794;21.590;2023-12-07T17:17:14;100555.73;;;-1.81;100.00
51526;BME280;37611;51.794;21.590;2023-12-07T17:21:16;100554.23;;;-1.83;100.00
51526;BME280;37611;51.794;21.590;2023-12-07T17:25:18;100549.11;;;-1.88;100.00
51526;BME280;37611;51.794;21.590;2023-12-07T17:29:21;100547.21;;;-1.87;100.00
51526;BME280;37611;51.794;21.590;2023-12-07T17:33:23;100551.10;;;-1.86;100.00
51526;BME280;37611;51.794;21.590;2023-12-07T17:37:24;100555.27;;;-1.87;100.00
51526;BME280;37611;51.794;21.590;2023-12-07T17:41:26;100565.30;;;-1.89;100.00
51526;BME280;37611;51.794;21.590;2023-12-07T17:45:28;100569.55;;;-1.92;100.00
51526;BME280;37611;51.794;21.590;2023-12-07T17:49:30;100567.61;;;-1.96;100.00
51526;BME280;37611;51.794;21.590;2023-12-07T17:53:32;100569.00;;;-1.96;100.00
51526;BME280;37611;51.794;21.590;2023-12-07T17:57:34;100568.55;;;-1.98;100.00
51526;BME280;37611;51.794;21.590;2023-12-07T18:01:35;100568.84;;;-2.01;100.00
51526;BME280;37611;51.794;21.590;2023-12-07T18:05:37;100572.80;;;-2.06;100.00
51526;BME280;37611;51.794;21.590;2023-12-07T18:09:40;100575.62;;;-2.08;100.00
51526;BME280;37611;51.794;21.590;2023-12-07T18:13:42;100568.25;;;-2.12;100.00
51526;BME280;37611;51.794;21.590;2023-12-07T18:17:44;100569.86;;;-2.14;100.00
51526;BME280;37611;51.794;21.590;2023-12-07T18:21:46;100569.86;;;-2.18;100.00
51526;BME280;37611;51.794;21.590;2023-12-07T18:25:48;100570.20;;;-2.23;100.00
51526;BME280;37611;51.794;21.590;2023-12-07T18:29:50;100572.23;;;-2.28;100.00
51526;BME280;37611;51.794;21.590;2023-12-07T18:33:52;100575.55;;;-2.24;100.00
51526;BME280;37611;51.794;21.590;2023-12-07T18:37:54;100569.56;;;-2.20;100.00
51526;BME280;37611;51.794;21.590;2023-12-07T18:41:59;100567.85;;;-2.25;100.00
51526;BME280;37611;51.794;21.590;2023-12-07T18:46:01;100569.92;;;-2.30;100.00
51526;BME280;37611;51.794;21.590;2023-12-07T18:50:08;100565.77;;;-2.33;100.00
51526;BME280;37611;51.794;21.590;2023-12-07T18:54:10;100570.15;;;-2.36;100.00
51526;BME280;37611;51.794;21.590;2023-12-07T18:58:11;100571.41;;;-2.42;100.00
51526;BME280;37611;51.794;21.590;2023-12-07T19:02:13;100572.83;;;-2.43;100.00
51526;BME280;37611;51.794;21.590;2023-12-07T19:06:20;100581.25;;;-2.49;100.00
51526;BME280;37611;51.794;21.590;2023-12-07T19:10:22;100578.80;;;-2.52;100.00
51526;BME280;37611;51.794;21.590;2023-12-07T19:14:24;100586.97;;;-2.55;100.00
51526;BME280;37611;51.794;21.590;2023-12-07T19:18:26;100590.48;;;-2.57;100.00
51526;BME280;37611;51.794;21.590;2023-12-07T19:22:30;100593.38;;;-2.62;100.00
51526;BME280;37611;51.794;21.590;2023-12-07T19:26:33;100596.39;;;-2.64;100.00
51526;BME280;37611;51.794;21.590;2023-12-07T19:30:35;100604.34;;;-2.66;100.00
51526;BME280;37611;51.794;21.590;2023-12-07T19:34:37;100601.23;;;-2.70;100.00
51526;BME280;37611;51.794;21.590;2023-12-07T19:38:39;100610.42;;;-2.69;100.00
51526;BME280;37611;51.794;21.590;2023-12-07T19:42:40;100613.23;;;-2.71;100.00
51526;BME280;37611;51.794;21.590;2023-12-07T19:46:42;100611.61;;;-2.68;100.00
51526;BME280;37611;51.794;21.590;2023-12-07T19:50:44;100613.98;;;-2.67;100.00
51526;BME280;37611;51.794;21.590;2023-12-07T19:54:46;100614.48;;;-2.67;100.00
51526;BME280;37611;51.794;21.590;2023-12-07T19:58:48;100617.36;;;-2.61;100.00
51526;BME280;37611;51.794;21.590;2023-12-07T20:02:50;100615.95;;;-2.60;100.00
51526;BME280;37611;51.794;21.590;2023-12-07T20:06:54;100618.96;;;-2.58;100.00
51526;BME280;37611;51.794;21.590;2023-12-07T20:10:56;100618.73;;;-2.56;100.00
51526;BME280;37611;51.794;21.590;2023-12-07T20:14:58;100624.21;;;-2.61;100.00
51526;BME280;37611;51.794;21.590;2023-12-07T20:19:00;100617.64;;;-2.69;100.00
51526;BME280;37611;51.794;21.590;2023-12-07T20:23:02;100609.69;;;-2.77;100.00
51526;BME280;37611;51.794;21.590;2023-12-07T20:27:04;100609.57;;;-2.84;100.00
51526;BME280;37611;51.794;21.590;2023-12-07T20:31:06;100614.45;;;-2.91;100.00
51526;BME280;37611;51.794;21.590;2023-12-07T20:35:08;100617.27;;;-2.94;100.00
51526;BME280;37611;51.794;21.590;2023-12-07T20:39:10;100620.67;;;-2.98;100.00